createdAt,value
2022-09-05T00:01:37.711Z,17.80
2022-09-05T00:04:24.555Z,17.80
2022-09-05T00:07:11.525Z,17.80
2022-09-05T00:10:13.095Z,17.70
2022-09-05T00:12:47.734Z,17.70
2022-09-05T00:15:29.328Z,17.70
2022-09-05T00:21:17.757Z,17.60
2022-09-05T00:24:32.632Z,17.60
2022-09-05T00:24:50.197Z,17.60
2022-09-05T00:27:25.470Z,17.60
2022-09-05T00:31:08.617Z,17.60
2022-09-05T00:33:26.457Z,17.60
2022-09-05T00:36:12.657Z,17.50
2022-09-05T00:38:42.904Z,17.50
2022-09-05T00:41:19.878Z,17.50
2022-09-05T00:43:50.671Z,17.50
2022-09-05T00:46:27.622Z,17.40
2022-09-05T00:49:17.950Z,17.40
2022-09-05T00:51:54.291Z,17.40
2022-09-05T00:54:51.611Z,17.40
2022-09-05T00:57:50.627Z,17.40
2022-09-05T01:00:21.310Z,17.30
2022-09-05T01:03:26.539Z,17.30
2022-09-05T01:06:15.534Z,17.20
2022-09-05T01:08:55.963Z,17.20
2022-09-05T01:11:50.275Z,17.10
2022-09-05T01:14:32.535Z,17.10
2022-09-05T01:17:13.502Z,17.10
2022-09-05T01:20:04.602Z,17.10
2022-09-05T01:23:08.480Z,17.00
2022-09-05T01:25:55.101Z,17.00
2022-09-05T01:29:16.854Z,17.00
2022-09-05T01:31:29.032Z,17.00
2022-09-05T01:34:05.706Z,17.00
2022-09-05T01:36:46.666Z,17.00
2022-09-05T01:40:10.795Z,16.90
2022-09-05T01:42:29.323Z,16.90
2022-09-05T01:45:08.157Z,16.90
2022-09-05T01:47:51.127Z,16.80
2022-09-05T01:50:40.530Z,16.80
2022-09-05T01:53:26.250Z,16.80
2022-09-05T01:56:34.164Z,16.70
2022-09-05T01:59:29.658Z,16.70
2022-09-05T02:02:20.349Z,16.60
2022-09-05T02:05:09.605Z,16.60
2022-09-05T02:07:59.788Z,16.60
2022-09-05T02:10:41.687Z,16.60
2022-09-05T02:13:20.589Z,16.50
2022-09-05T02:15:59.428Z,16.50
2022-09-05T02:18:44.301Z,16.60
2022-09-05T02:21:22.194Z,16.50
2022-09-05T02:23:55.984Z,16.50
2022-09-05T02:26:34.412Z,16.50
2022-09-05T02:29:11.231Z,16.50
2022-09-05T02:31:47.492Z,16.50
2022-09-05T02:34:22.981Z,16.50
2022-09-05T02:37:06.010Z,16.40
2022-09-05T02:45:02.366Z,16.40
2022-09-05T02:45:13.250Z,16.40
2022-09-05T02:45:31.039Z,16.40
2022-09-05T02:48:17.068Z,16.40
2022-09-05T02:57:23.459Z,16.30
2022-09-05T02:57:34.740Z,16.30
2022-09-05T02:57:42.315Z,16.40
2022-09-05T03:00:15.020Z,16.30
2022-09-05T03:03:10.405Z,16.30
2022-09-05T03:05:47.118Z,16.30
2022-09-05T03:08:25.630Z,16.30
2022-09-05T03:11:42.587Z,16.30
2022-09-05T03:14:44.071Z,16.30
2022-09-05T03:17:54.402Z,16.30
2022-09-05T03:21:08.955Z,16.30
2022-09-05T03:24:10.775Z,16.30
2022-09-05T03:27:26.844Z,16.30
2022-09-05T03:30:13.020Z,16.30
2022-09-05T03:33:22.156Z,16.30
2022-09-05T03:36:28.441Z,16.30
2022-09-05T03:39:41.304Z,16.30
2022-09-05T03:42:31.236Z,16.20
2022-09-05T03:45:36.682Z,16.20
2022-09-05T03:48:42.047Z,16.20
2022-09-05T03:57:06.170Z,16.20
2022-09-05T03:57:16.802Z,16.20
2022-09-05T03:58:28.122Z,16.20
2022-09-05T04:01:17.600Z,16.10
2022-09-05T04:08:16.801Z,16.10
2022-09-05T04:08:17.537Z,16.10
2022-09-05T04:10:00.320Z,16.10
2022-09-05T04:12:33.550Z,16.10
2022-09-05T04:15:10.020Z,16.10
2022-09-05T21:59:47.111Z,18.10
2022-09-05T22:02:21.135Z,18.10
2022-09-05T22:05:02.774Z,18.00
2022-09-05T22:07:40.347Z,18.00
2022-09-05T22:10:19.991Z,18.00
2022-09-05T22:12:49.947Z,17.90
2022-09-05T22:15:27.840Z,17.90
2022-09-05T22:18:17.263Z,17.90
2022-09-05T22:21:32.197Z,17.90
2022-09-05T22:23:45.177Z,17.80
2022-09-05T22:26:21.635Z,17.80
2022-09-05T22:28:51.344Z,17.80
2022-09-05T22:31:29.306Z,17.80
2022-09-05T22:34:05.414Z,17.80
2022-09-05T22:36:37.579Z,17.80
2022-09-05T22:39:12.713Z,17.80
2022-09-05T22:41:49.193Z,17.70
2022-09-05T22:44:18.701Z,17.70
2022-09-05T22:46:51.480Z,17.70
2022-09-05T22:49:23.557Z,17.70
2022-09-05T22:51:53.506Z,17.60
2022-09-05T22:54:24.488Z,17.60
2022-09-05T22:56:56.043Z,17.60
2022-09-05T22:59:29.335Z,17.60
2022-09-05T23:01:58.934Z,17.60
2022-09-05T23:04:29.334Z,17.50
2022-09-05T23:07:02.765Z,17.40
2022-09-05T23:09:32.685Z,17.40
2022-09-05T23:12:09.077Z,17.40
2022-09-05T23:14:48.994Z,17.30
2022-09-05T23:17:20.451Z,17.30
2022-09-05T23:19:50.059Z,17.20
2022-09-05T23:22:19.764Z,17.30
2022-09-05T23:24:52.974Z,17.20
2022-09-05T23:27:27.291Z,17.20
2022-09-05T23:30:04.565Z,17.20
2022-09-05T23:32:39.808Z,17.20
2022-09-05T23:35:10.031Z,17.10
2022-09-05T23:37:44.064Z,17.10
2022-09-05T23:40:18.020Z,17.10
2022-09-05T23:42:55.714Z,17.10
2022-09-05T23:45:33.640Z,17.10
2022-09-05T23:48:03.454Z,17.00
2022-09-05T23:50:33.376Z,17.00
2022-09-05T23:53:13.743Z,17.00
2022-09-05T23:55:43.799Z,17.00
2022-09-05T23:58:18.730Z,17.00
